createdAt,value
2023-04-18T00:00:57.882Z,6.45
2023-04-18T00:03:24.834Z,6.50
2023-04-18T00:05:51.872Z,6.45
2023-04-18T00:08:18.372Z,6.48
2023-04-18T00:10:44.853Z,6.46
2023-04-18T00:13:12.112Z,6.45
2023-04-18T00:15:38.651Z,6.46
2023-04-18T00:18:06.083Z,6.43
2023-04-18T00:20:32.995Z,6.48
2023-04-18T00:23:00.662Z,6.48
2023-04-18T00:25:27.132Z,6.49
2023-04-18T00:27:53.815Z,6.49
2023-04-18T00:30:20.317Z,6.52
2023-04-18T00:32:46.853Z,6.52
2023-04-18T00:35:13.427Z,6.51
2023-04-18T00:37:39.983Z,6.57
2023-04-18T00:40:06.833Z,6.61
2023-04-18T00:42:33.717Z,6.61
2023-04-18T00:45:01.195Z,6.57
2023-04-18T00:47:27.731Z,6.53
2023-04-18T00:49:54.401Z,6.41
2023-04-18T00:52:20.862Z,6.41
2023-04-18T00:54:47.342Z,6.41
2023-04-18T00:57:13.893Z,6.37
2023-04-18T00:59:40.406Z,6.35
2023-04-18T01:02:07.056Z,6.31
2023-04-18T01:04:33.763Z,6.30
2023-04-18T01:07:01.381Z,6.27
2023-04-18T01:09:28.362Z,6.29
2023-04-18T01:11:54.964Z,6.25
2023-04-18T01:14:21.695Z,6.19
2023-04-18T01:16:51.144Z,6.17
2023-04-18T01:19:17.710Z,6.15
2023-04-18T01:21:44.196Z,6.14
2023-04-18T01:24:14.919Z,6.15
2023-04-18T01:26:43.632Z,6.10
2023-04-18T01:29:10.258Z,6.03
2023-04-18T01:31:37.389Z,6.03
2023-04-18T01:34:04.500Z,6.01
2023-04-18T01:36:31.985Z,5.93
2023-04-18T01:38:59.059Z,5.93
2023-04-18T01:41:25.725Z,5.91
2023-04-18T01:43:52.242Z,5.88
2023-04-18T01:46:18.781Z,5.88
2023-04-18T01:48:45.779Z,5.88
2023-04-18T01:51:12.302Z,5.81
2023-04-18T01:53:38.760Z,5.75
2023-04-18T01:56:05.511Z,5.75
2023-04-18T01:58:32.064Z,5.76
2023-04-18T02:00:58.543Z,5.69
2023-04-18T02:03:25.457Z,5.74
2023-04-18T02:05:52.072Z,5.73
2023-04-18T02:08:18.586Z,5.78
2023-04-18T02:10:45.273Z,5.80
2023-04-18T02:13:11.745Z,5.80
2023-04-18T02:15:38.232Z,5.86
2023-04-18T02:18:04.804Z,5.87
2023-04-18T02:20:34.863Z,5.91
2023-04-18T02:23:01.953Z,5.92
2023-04-18T02:25:29.299Z,5.93
2023-04-18T02:27:56.165Z,5.94
2023-04-18T02:30:23.249Z,5.92
2023-04-18T02:32:53.534Z,5.92
2023-04-18T02:35:20.507Z,5.92
2023-04-18T02:37:46.968Z,5.84
2023-04-18T02:40:13.704Z,5.77
2023-04-18T02:42:40.287Z,5.78
2023-04-18T02:45:07.625Z,5.80
2023-04-18T02:47:43.520Z,5.74
2023-04-18T02:50:18.087Z,5.69
2023-04-18T02:52:44.674Z,5.69
2023-04-18T02:55:11.124Z,5.62
2023-04-18T02:57:37.591Z,5.63
2023-04-18T03:00:06.435Z,5.53
2023-04-18T03:02:33.127Z,5.50
2023-04-18T03:04:59.751Z,5.40
2023-04-18T03:07:26.402Z,5.41
2023-04-18T03:09:52.888Z,5.51
2023-04-18T03:12:19.433Z,5.45
2023-04-18T03:14:45.924Z,5.47
2023-04-18T03:17:12.389Z,5.45
2023-04-18T03:19:38.909Z,5.45
2023-04-18T03:22:06.105Z,5.40
2023-04-18T03:24:32.588Z,5.42
2023-04-18T03:27:00.461Z,5.37
2023-04-18T03:29:27.087Z,5.36
2023-04-18T03:31:53.554Z,5.36
2023-04-18T03:34:20.403Z,5.34
2023-04-18T03:36:48.231Z,5.37
2023-04-18T03:39:14.857Z,5.28
2023-04-18T03:41:41.397Z,5.27
2023-04-18T03:44:08.889Z,5.21
2023-04-18T03:46:35.424Z,5.21
2023-04-18T03:49:01.984Z,5.22
2023-04-18T03:51:41.596Z,5.13
2023-04-18T03:54:08.098Z,5.16
2023-04-18T03:56:34.779Z,5.12
2023-04-18T03:59:01.322Z,5.11
2023-04-18T04:01:27.848Z,5.12
2023-04-18T04:03:54.559Z,5.13
2023-04-18T04:06:21.266Z,5.08
2023-04-18T04:08:47.732Z,5.04
2023-04-18T04:11:14.267Z,5.02
2023-04-18T04:13:40.798Z,5.03
2023-04-18T04:16:07.624Z,5.05
2023-04-18T04:18:34.141Z,5.09
2023-04-18T04:21:00.688Z,5.11
2023-04-18T04:23:27.184Z,5.21
2023-04-18T04:25:54.018Z,5.27
2023-04-18T04:28:23.812Z,5.30
2023-04-18T04:30:53.811Z,5.30
2023-04-18T04:33:20.554Z,5.31
2023-04-18T04:35:47.191Z,5.30
2023-04-18T04:38:15.261Z,5.27
2023-04-18T04:40:42.211Z,5.31
2023-04-18T04:43:12.806Z,5.33
2023-04-18T04:45:41.433Z,5.36
2023-04-18T04:48:08.410Z,5.35
2023-04-18T04:50:38.621Z,5.37
2023-04-18T04:53:06.327Z,5.38
2023-04-18T04:55:33.108Z,5.47
2023-04-18T04:57:59.718Z,5.43
2023-04-18T05:00:26.371Z,5.50
2023-04-18T05:02:55.773Z,5.55
2023-04-18T05:05:22.753Z,5.62
2023-04-18T05:07:49.302Z,5.64
2023-04-18T05:10:15.776Z,5.69
2023-04-18T05:12:42.258Z,5.76
2023-04-18T05:15:09.068Z,5.79
2023-04-18T05:17:35.642Z,5.85
2023-04-18T05:20:02.221Z,5.96
2023-04-18T05:22:28.778Z,6.14
2023-04-18T05:24:55.268Z,6.28
2023-04-18T05:27:21.818Z,6.30
2023-04-18T05:29:50.232Z,6.30
2023-04-18T05:32:16.853Z,6.31
2023-04-18T05:34:43.429Z,6.35
2023-04-18T05:37:09.902Z,6.39
2023-04-18T05:39:36.399Z,6.51
2023-04-18T05:42:03.354Z,6.55
2023-04-18T05:44:30.198Z,6.53
2023-04-18T05:46:56.658Z,6.55
2023-04-18T05:49:23.676Z,6.62
2023-04-18T05:51:50.619Z,6.71
2023-04-18T05:54:17.139Z,6.89
2023-04-18T05:56:43.798Z,6.99
2023-04-18T05:59:10.503Z,7.14
2023-04-18T06:01:36.959Z,7.23
2023-04-18T06:04:03.663Z,7.45
2023-04-18T06:06:31.421Z,7.27
2023-04-18T06:08:57.959Z,7.21
2023-04-18T06:11:25.100Z,7.14
2023-04-18T06:13:51.600Z,7.18
2023-04-18T06:16:18.169Z,7.21
2023-04-18T06:18:44.761Z,7.13
2023-04-18T06:21:11.218Z,7.18
2023-04-18T06:23:38.499Z,7.18
2023-04-18T06:26:05.065Z,7.28
2023-04-18T06:28:31.615Z,7.32
2023-04-18T06:30:58.118Z,7.40
2023-04-18T06:33:24.633Z,7.50
2023-04-18T06:35:51.139Z,7.49
2023-04-18T06:38:17.647Z,7.49
2023-04-18T06:40:44.211Z,7.56
2023-04-18T06:43:10.738Z,7.55
2023-04-18T06:45:37.242Z,7.78
2023-04-18T06:48:04.086Z,7.67
2023-04-18T06:50:30.758Z,7.69
2023-04-18T06:52:57.252Z,7.81
2023-04-18T06:55:23.763Z,7.73
2023-04-18T06:57:50.288Z,7.75
2023-04-18T07:00:16.983Z,7.84
2023-04-18T07:02:43.668Z,7.81
2023-04-18T07:05:10.795Z,7.73
2023-04-18T07:07:37.353Z,7.87
2023-04-18T07:10:04.392Z,7.78
2023-04-18T07:12:30.930Z,7.81
2023-04-18T07:14:57.491Z,7.88
2023-04-18T07:17:24.096Z,7.92
2023-04-18T07:19:50.594Z,7.79
2023-04-18T07:22:17.076Z,7.80
2023-04-18T07:24:44.175Z,7.87
2023-04-18T07:27:10.652Z,7.80
2023-04-18T07:29:37.117Z,7.89
2023-04-18T07:32:04.268Z,7.95
2023-04-18T07:34:31.485Z,8.04
2023-04-18T07:36:58.037Z,7.94
2023-04-18T07:39:24.545Z,8.16
2023-04-18T07:41:51.141Z,8.22
2023-04-18T07:44:18.231Z,8.10
2023-04-18T07:46:44.862Z,8.23
2023-04-18T07:49:11.607Z,8.34
2023-04-18T07:51:38.223Z,8.48
2023-04-18T07:54:04.756Z,8.47
2023-04-18T07:56:31.231Z,8.46
2023-04-18T07:58:57.748Z,8.60
2023-04-18T08:01:27.300Z,8.88
2023-04-18T08:03:55.157Z,8.90
2023-04-18T08:06:21.760Z,8.91
2023-04-18T08:08:48.305Z,8.86
2023-04-18T08:11:14.774Z,8.84
2023-04-18T08:13:41.257Z,8.99
2023-04-18T08:16:07.868Z,9.14
2023-04-18T08:18:35.093Z,9.20
2023-04-18T08:21:01.560Z,9.44
2023-04-18T08:23:28.260Z,9.50
2023-04-18T08:25:54.790Z,9.51
2023-04-18T08:28:21.471Z,9.49
2023-04-18T08:30:49.180Z,9.23
2023-04-18T08:33:16.180Z,9.35
2023-04-18T08:35:43.091Z,9.47
2023-04-18T08:38:09.855Z,9.49
2023-04-18T08:40:37.435Z,9.57
2023-04-18T08:43:04.925Z,9.71
2023-04-18T08:45:31.610Z,9.44
2023-04-18T08:48:01.398Z,9.80
2023-04-18T08:50:27.972Z,9.77
2023-04-18T08:52:54.549Z,9.74
2023-04-18T08:55:22.357Z,9.57
2023-04-18T08:57:50.346Z,9.68
2023-04-18T09:00:17.923Z,9.58
2023-04-18T09:02:44.911Z,9.73
2023-04-18T09:05:16.580Z,10.03
2023-04-18T09:07:43.160Z,10.44
2023-04-18T09:10:10.074Z,10.40
2023-04-18T09:12:46.345Z,10.22
2023-04-18T09:15:15.641Z,10.12
2023-04-18T09:17:45.339Z,10.10
2023-04-18T09:20:12.934Z,10.22
2023-04-18T09:22:52.682Z,10.24
2023-04-18T09:25:34.963Z,10.33
2023-04-18T09:28:02.173Z,10.30
2023-04-18T09:30:29.832Z,10.61
2023-04-18T09:33:00.303Z,10.11
2023-04-18T09:35:27.199Z,9.96
2023-04-18T09:37:53.675Z,10.01
2023-04-18T09:40:20.565Z,10.09
2023-04-18T09:42:48.104Z,10.00
2023-04-18T09:45:15.444Z,9.89
2023-04-18T09:47:42.081Z,9.84
2023-04-18T09:50:09.492Z,9.89
2023-04-18T09:52:40.106Z,9.63
2023-04-18T09:55:08.651Z,9.77
2023-04-18T09:57:35.830Z,9.97
2023-04-18T10:00:16.294Z,10.16
2023-04-18T10:02:50.330Z,10.05
2023-04-18T10:05:19.511Z,9.89
2023-04-18T10:07:48.903Z,10.12
2023-04-18T10:10:15.790Z,10.32
2023-04-18T10:12:42.403Z,10.16
2023-04-18T10:15:09.727Z,10.24
2023-04-18T10:18:14.845Z,10.23
2023-04-18T10:20:41.732Z,10.33
2023-04-18T10:23:38.095Z,10.50
2023-04-18T10:26:08.424Z,10.26
2023-04-18T10:28:53.621Z,10.40
2023-04-18T10:31:27.484Z,10.45
2023-04-18T10:36:30.146Z,10.65
2023-04-18T10:39:00.816Z,11.07
2023-04-18T10:41:27.978Z,10.61
2023-04-18T10:44:09.353Z,10.59
2023-04-18T10:46:36.757Z,10.64
2023-04-18T10:49:34.178Z,10.64
2023-04-18T10:52:01.384Z,10.58
2023-04-18T10:54:39.267Z,10.72
2023-04-18T10:57:07.524Z,11.07
2023-04-18T10:59:37.480Z,11.21
2023-04-18T11:02:33.245Z,11.05
2023-04-18T11:05:01.222Z,11.00
2023-04-18T11:07:37.207Z,11.21
2023-04-18T11:10:04.873Z,11.20
2023-04-18T11:12:32.647Z,11.16
2023-04-18T11:15:01.557Z,11.26
2023-04-18T11:17:29.505Z,11.19
2023-04-18T11:20:00.678Z,11.34
2023-04-18T11:22:27.236Z,11.21
2023-04-18T11:25:07.932Z,11.29
2023-04-18T11:27:34.466Z,11.41
2023-04-18T11:30:01.125Z,11.37
2023-04-18T11:32:27.798Z,11.57
2023-04-18T11:34:54.635Z,11.34
2023-04-18T11:37:21.454Z,11.48
2023-04-18T11:39:48.019Z,11.32
2023-04-18T11:42:14.525Z,11.46
2023-04-18T11:44:44.907Z,11.27
2023-04-18T11:47:24.606Z,11.49
2023-04-18T11:50:00.757Z,11.98
2023-04-18T11:52:28.406Z,12.28
2023-04-18T11:54:55.047Z,12.23
2023-04-18T11:57:39.906Z,12.07
2023-04-18T12:00:07.580Z,11.95
2023-04-18T12:02:45.012Z,12.65
2023-04-18T12:05:14.542Z,14.30
2023-04-18T12:07:42.360Z,13.87
2023-04-18T12:10:20.924Z,13.57
2023-04-18T12:12:51.202Z,13.43
2023-04-18T12:15:18.055Z,13.25
2023-04-18T12:17:45.409Z,13.61
2023-04-18T12:20:13.416Z,13.37
2023-04-18T12:22:44.750Z,13.68
2023-04-18T12:25:26.929Z,13.28
2023-04-18T12:28:00.880Z,11.89
2023-04-18T12:30:28.770Z,12.37
2023-04-18T12:32:59.827Z,12.96
2023-04-18T12:35:26.620Z,13.44
2023-04-18T12:37:54.570Z,13.21
2023-04-18T12:40:21.934Z,13.33
2023-04-18T12:42:48.791Z,14.31
2023-04-18T12:45:15.660Z,13.23
2023-04-18T12:47:43.420Z,12.90
2023-04-18T12:50:11.602Z,12.66
2023-04-18T12:52:39.352Z,12.83
2023-04-18T12:55:06.950Z,13.20
2023-04-18T12:57:33.520Z,13.42
2023-04-18T13:00:00.148Z,12.51
2023-04-18T13:02:29.046Z,13.07
2023-04-18T13:04:56.493Z,12.80
2023-04-18T13:07:23.032Z,13.75
2023-04-18T13:09:49.491Z,12.56
2023-04-18T13:12:15.985Z,11.80
2023-04-18T13:14:42.565Z,11.98
2023-04-18T13:17:09.276Z,12.21
2023-04-18T13:19:35.894Z,12.50
2023-04-18T13:22:03.069Z,12.75
2023-04-18T13:24:29.575Z,12.32
2023-04-18T13:26:56.572Z,12.33
2023-04-18T13:29:23.115Z,12.39
2023-04-18T13:31:49.697Z,11.81
2023-04-18T13:34:16.219Z,11.83
2023-04-18T13:36:42.970Z,11.83
2023-04-18T13:39:10.555Z,11.97
2023-04-18T13:41:37.059Z,11.80
2023-04-18T13:44:03.626Z,11.74
2023-04-18T13:46:30.999Z,11.98
2023-04-18T13:48:57.643Z,12.07
2023-04-18T13:51:24.183Z,12.84
2023-04-18T13:53:51.604Z,12.86
2023-04-18T13:56:18.074Z,14.82
2023-04-18T13:58:44.613Z,14.72
2023-04-18T14:01:11.873Z,13.55
2023-04-18T14:03:39.959Z,12.95
2023-04-18T14:06:08.059Z,12.34
2023-04-18T14:08:34.553Z,12.33
2023-04-18T14:11:01.022Z,12.33
2023-04-18T14:13:27.519Z,12.32
2023-04-18T14:15:54.158Z,12.08
2023-04-18T14:18:21.813Z,12.27
2023-04-18T14:20:48.642Z,12.02
2023-04-18T14:23:15.910Z,12.20
2023-04-18T14:25:42.618Z,12.05
2023-04-18T14:28:10.930Z,11.97
2023-04-18T14:30:38.089Z,11.67
2023-04-18T14:33:04.816Z,11.45
2023-04-18T14:35:31.792Z,11.33
2023-04-18T14:37:58.286Z,11.40
2023-04-18T14:40:24.772Z,11.49
2023-04-18T14:42:51.296Z,11.58
2023-04-18T14:45:17.847Z,11.27
2023-04-18T14:47:44.403Z,11.51
2023-04-18T14:50:14.103Z,11.42
2023-04-18T14:52:40.913Z,11.21
2023-04-18T14:55:08.339Z,11.09
2023-04-18T14:57:36.157Z,10.83
2023-04-18T15:00:05.413Z,10.69
2023-04-18T15:02:32.223Z,10.49
2023-04-18T15:04:59.209Z,10.47
2023-04-18T15:07:26.134Z,10.35
2023-04-18T15:09:52.631Z,10.27
2023-04-18T15:12:19.182Z,10.20
2023-04-18T15:14:45.713Z,10.41
2023-04-18T15:17:12.154Z,10.53
2023-04-18T15:19:38.654Z,10.43
2023-04-18T15:22:05.174Z,10.39
2023-04-18T15:24:31.641Z,10.44
2023-04-18T15:26:58.766Z,10.54
2023-04-18T15:29:25.379Z,10.54
2023-04-18T15:31:51.938Z,10.49
2023-04-18T15:34:18.520Z,10.55
2023-04-18T15:36:46.865Z,10.52
2023-04-18T15:39:13.714Z,10.65
2023-04-18T15:41:42.083Z,10.52
2023-04-18T15:44:08.615Z,10.47
2023-04-18T15:46:36.717Z,10.29
2023-04-18T15:49:03.272Z,10.21
2023-04-18T15:51:30.239Z,10.22
2023-04-18T15:53:56.752Z,10.21
2023-04-18T15:56:27.550Z,10.05
2023-04-18T15:58:57.133Z,10.07
2023-04-18T16:01:23.767Z,10.10
2023-04-18T16:03:50.608Z,10.11
2023-04-18T16:06:19.008Z,9.99
2023-04-18T16:08:45.572Z,9.98
2023-04-18T16:11:12.069Z,9.94
2023-04-18T16:13:38.657Z,9.88
2023-04-18T16:16:05.761Z,9.88
2023-04-18T16:18:32.440Z,9.94
2023-04-18T16:20:59.005Z,9.93
2023-04-18T16:23:26.113Z,10.06
2023-04-18T16:25:55.207Z,10.10
2023-04-18T16:28:22.066Z,10.07
2023-04-18T16:30:48.658Z,10.01
2023-04-18T16:33:15.606Z,10.01
2023-04-18T16:35:42.227Z,10.00
2023-04-18T16:38:08.715Z,10.05
2023-04-18T16:40:35.656Z,9.91
2023-04-18T16:43:02.288Z,9.92
2023-04-18T16:45:28.831Z,9.89
2023-04-18T16:47:55.541Z,10.01
2023-04-18T16:50:22.648Z,9.92
2023-04-18T16:52:49.365Z,9.95
2023-04-18T16:55:16.011Z,9.92
2023-04-18T16:57:42.543Z,9.83
2023-04-18T17:00:10.198Z,9.88
2023-04-18T17:02:39.712Z,9.89
2023-04-18T17:05:06.662Z,9.86
2023-04-18T17:07:33.262Z,9.85
2023-04-18T17:09:59.753Z,9.81
2023-04-18T17:12:26.504Z,9.83
2023-04-18T17:14:52.994Z,9.76
2023-04-18T17:17:19.673Z,9.72
2023-04-18T17:19:46.484Z,9.75
2023-04-18T17:22:12.971Z,9.72
2023-04-18T17:24:39.539Z,9.72
2023-04-18T17:27:06.042Z,9.62
2023-04-18T17:29:32.595Z,9.57
2023-04-18T17:31:59.209Z,9.57
2023-04-18T17:34:25.865Z,9.56
2023-04-18T17:36:52.362Z,9.50
2023-04-18T17:39:18.915Z,9.54
2023-04-18T17:41:45.880Z,9.54
2023-04-18T17:44:12.331Z,9.54
2023-04-18T17:46:39.018Z,9.55
2023-04-18T17:49:05.584Z,9.50
2023-04-18T17:51:32.085Z,9.52
2023-04-18T17:53:58.740Z,9.43
2023-04-18T17:56:25.558Z,9.36
2023-04-18T17:58:52.616Z,9.32
2023-04-18T18:01:21.090Z,9.30
2023-04-18T18:03:48.314Z,9.27
2023-04-18T18:06:15.353Z,9.30
2023-04-18T18:08:43.013Z,9.26
2023-04-18T18:11:10.592Z,9.19
2023-04-18T18:13:38.859Z,9.26
2023-04-18T18:16:06.115Z,9.21
2023-04-18T18:18:32.712Z,9.21
2023-04-18T18:20:59.178Z,9.17
2023-04-18T18:23:25.793Z,9.15
2023-04-18T18:25:52.420Z,9.14
2023-04-18T18:28:19.166Z,9.12
2023-04-18T18:30:45.677Z,9.12
2023-04-18T18:33:12.170Z,9.12
2023-04-18T18:35:38.727Z,9.11
2023-04-18T18:38:05.366Z,9.05
2023-04-18T18:40:31.925Z,9.08
2023-04-18T18:42:59.338Z,9.01
2023-04-18T18:45:26.340Z,9.01
2023-04-18T18:47:52.950Z,8.95
2023-04-18T18:50:19.572Z,8.97
2023-04-18T18:52:46.147Z,8.99
2023-04-18T18:55:12.674Z,8.95
2023-04-18T18:57:39.192Z,8.95
2023-04-18T19:00:09.654Z,8.98
2023-04-18T19:02:36.348Z,8.97
2023-04-18T19:05:03.767Z,8.98
2023-04-18T19:07:30.541Z,8.94
2023-04-18T19:09:57.085Z,8.91
2023-04-18T19:12:23.552Z,8.86
2023-04-18T19:14:50.680Z,8.90
2023-04-18T19:17:19.118Z,8.86
2023-04-18T19:19:45.679Z,8.83
2023-04-18T19:22:12.247Z,8.90
2023-04-18T19:24:38.785Z,8.89
2023-04-18T19:27:05.298Z,8.87
2023-04-18T19:29:32.879Z,8.77
2023-04-18T19:31:59.634Z,8.82
2023-04-18T19:34:26.118Z,8.79
2023-04-18T19:36:52.644Z,8.78
2023-04-18T19:39:19.143Z,8.75
2023-04-18T19:41:45.992Z,8.73
2023-04-18T19:44:12.534Z,8.76
2023-04-18T19:46:39.308Z,8.80
2023-04-18T19:49:05.884Z,8.75
2023-04-18T19:51:32.423Z,8.73
2023-04-18T19:53:58.945Z,8.76
2023-04-18T19:56:25.430Z,8.73
2023-04-18T19:58:51.991Z,8.74
2023-04-18T20:01:19.153Z,8.73
2023-04-18T20:03:47.022Z,8.76
2023-04-18T20:06:13.768Z,8.74
2023-04-18T20:08:45.010Z,8.70
2023-04-18T20:11:12.031Z,8.75
2023-04-18T20:13:38.571Z,8.69
2023-04-18T20:16:05.589Z,8.74
2023-04-18T20:18:33.832Z,8.74
2023-04-18T20:21:00.760Z,8.72
2023-04-18T20:23:27.274Z,8.70
2023-04-18T20:25:53.754Z,8.68
2023-04-18T20:28:20.536Z,8.70
2023-04-18T20:30:47.961Z,8.69
2023-04-18T20:33:14.606Z,8.66
2023-04-18T20:35:41.518Z,8.62
2023-04-18T20:38:09.810Z,8.61
2023-04-18T20:40:37.156Z,8.64
2023-04-18T20:43:03.704Z,8.63
2023-04-18T20:45:30.203Z,8.62
2023-04-18T20:47:56.845Z,8.62
2023-04-18T20:50:23.422Z,8.59
2023-04-18T20:52:49.882Z,8.60
2023-04-18T20:55:18.210Z,8.66
2023-04-18T20:57:44.906Z,8.63
2023-04-18T21:00:13.866Z,8.61
2023-04-18T21:02:41.444Z,8.57
2023-04-18T21:05:08.254Z,8.59
2023-04-18T21:07:35.306Z,8.56
2023-04-18T21:10:04.927Z,8.56
2023-04-18T21:12:31.420Z,8.57
2023-04-18T21:14:57.891Z,8.54
2023-04-18T21:17:25.604Z,8.57
2023-04-18T21:19:52.539Z,8.57
2023-04-18T21:22:19.052Z,8.54
2023-04-18T21:24:46.724Z,8.55
2023-04-18T21:27:13.738Z,8.51
2023-04-18T21:29:40.651Z,8.53
2023-04-18T21:32:07.124Z,8.55
2023-04-18T21:34:33.673Z,8.56
2023-04-18T21:37:00.490Z,8.53
2023-04-18T21:39:27.364Z,8.56
2023-04-18T21:41:53.842Z,8.52
2023-04-18T21:44:20.361Z,8.53
2023-04-18T21:46:46.922Z,8.53
2023-04-18T21:49:13.489Z,8.50
2023-04-18T21:51:39.986Z,8.48
2023-04-18T21:54:07.650Z,8.50
2023-04-18T21:56:34.210Z,8.49
2023-04-18T21:59:00.900Z,8.51
2023-04-18T22:01:27.454Z,8.52
2023-04-18T22:03:54.077Z,8.49
2023-04-18T22:06:20.736Z,8.53
2023-04-18T22:08:48.140Z,8.51
2023-04-18T22:11:15.725Z,8.53
2023-04-18T22:13:44.532Z,8.51
2023-04-18T22:16:11.016Z,8.51
2023-04-18T22:18:38.165Z,8.50
2023-04-18T22:21:04.795Z,8.53
2023-04-18T22:23:31.376Z,8.52
2023-04-18T22:25:57.917Z,8.55
2023-04-18T22:28:24.507Z,8.58
2023-04-18T22:30:51.283Z,8.51
2023-04-18T22:33:17.895Z,8.54
2023-04-18T22:35:46.146Z,8.53
2023-04-18T22:38:12.613Z,8.53
2023-04-18T22:40:39.112Z,8.53
2023-04-18T22:43:05.562Z,8.51
2023-04-18T22:45:33.586Z,8.55
2023-04-18T22:48:00.431Z,8.53
2023-04-18T22:50:27.354Z,8.54
2023-04-18T22:52:53.856Z,8.50
2023-04-18T22:55:20.527Z,8.45
2023-04-18T22:57:47.071Z,8.48
2023-04-18T23:00:14.024Z,8.46
2023-04-18T23:02:40.808Z,8.48
2023-04-18T23:05:07.946Z,8.46
2023-04-18T23:07:34.451Z,8.46
2023-04-18T23:10:00.910Z,8.48
2023-04-18T23:12:27.741Z,8.48
2023-04-18T23:14:54.207Z,8.50
2023-04-18T23:17:20.990Z,8.49
2023-04-18T23:19:47.499Z,8.54
2023-04-18T23:22:13.970Z,8.50
2023-04-18T23:24:40.583Z,8.45
2023-04-18T23:27:07.146Z,8.44
2023-04-18T23:29:37.695Z,8.41
2023-04-18T23:32:04.708Z,8.44
2023-04-18T23:34:31.829Z,8.42
2023-04-18T23:36:58.295Z,8.44
2023-04-18T23:39:26.239Z,8.39
2023-04-18T23:41:52.696Z,8.41
2023-04-18T23:44:19.152Z,8.38
2023-04-18T23:46:45.928Z,8.39
2023-04-18T23:49:12.437Z,8.42
2023-04-18T23:51:38.884Z,8.38
2023-04-18T23:54:05.572Z,8.35
2023-04-18T23:56:32.171Z,8.34
2023-04-18T23:58:58.645Z,8.37
